createdAt,value
2022-12-25T00:01:22.495Z,13.30
2022-12-25T00:03:50.436Z,15.70
2022-12-25T00:06:18.278Z,13.70
2022-12-25T00:08:45.099Z,15.50
2022-12-25T00:11:14.806Z,13.00
2022-12-25T00:13:42.164Z,11.20
2022-12-25T00:16:12.957Z,9.80
2022-12-25T00:18:39.697Z,10.70
2022-12-25T00:21:07.568Z,10.10
2022-12-25T00:23:35.588Z,9.70
2022-12-25T00:26:08.367Z,12.20
2022-12-25T00:28:36.286Z,11.10
2022-12-25T00:31:11.369Z,12.00
2022-12-25T00:33:40.294Z,10.20
2022-12-25T00:36:08.791Z,11.70
2022-12-25T00:38:37.397Z,10.20
2022-12-25T00:41:06.778Z,10.80
2022-12-25T00:43:33.551Z,11.50
2022-12-25T00:46:02.950Z,9.90
2022-12-25T00:48:30.560Z,9.90
2022-12-25T00:50:59.776Z,10.70
2022-12-25T00:53:28.218Z,10.10
2022-12-25T00:55:58.208Z,12.00
2022-12-25T00:58:27.441Z,9.70
2022-12-25T01:00:54.677Z,9.20
2022-12-25T01:03:21.453Z,11.30
2022-12-25T01:06:03.338Z,9.00
2022-12-25T01:08:33.309Z,9.90
2022-12-25T01:11:09.663Z,8.90
2022-12-25T01:13:37.882Z,11.60
2022-12-25T01:16:09.676Z,9.80
2022-12-25T01:18:38.209Z,9.20
2022-12-25T01:21:12.158Z,13.60
2022-12-25T01:23:39.165Z,11.10
2022-12-25T01:26:10.940Z,10.90
2022-12-25T01:28:38.679Z,11.40
2022-12-25T01:31:14.130Z,11.10
2022-12-25T01:33:42.320Z,9.80
2022-12-25T01:36:35.360Z,10.90
2022-12-25T01:41:29.588Z,8.40
2022-12-25T01:46:22.871Z,10.40
2022-12-25T01:48:50.270Z,9.30
2022-12-25T01:51:50.847Z,8.90
2022-12-25T01:54:23.915Z,11.30
2022-12-25T01:56:53.576Z,9.50
2022-12-25T01:59:24.828Z,9.40
2022-12-25T02:01:51.719Z,9.50
2022-12-25T02:04:40.443Z,9.30
2022-12-25T02:07:12.794Z,9.70
2022-12-25T02:09:39.548Z,11.70
2022-12-25T02:12:08.604Z,9.60
2022-12-25T02:14:37.500Z,8.60
2022-12-25T02:17:26.054Z,10.30
2022-12-25T02:20:11.238Z,11.10
2022-12-25T02:22:46.987Z,9.00
2022-12-25T02:25:43.620Z,10.70
2022-12-25T02:28:21.561Z,7.70
2022-12-25T02:31:18.465Z,11.50
2022-12-25T02:34:05.024Z,10.80
2022-12-25T02:36:40.972Z,8.80
2022-12-25T02:39:42.788Z,9.70
2022-12-25T02:42:16.825Z,9.10
2022-12-25T02:45:08.862Z,10.60
2022-12-25T02:47:57.792Z,10.40
2022-12-25T02:51:01.717Z,7.50
2022-12-25T02:53:48.655Z,7.80
2022-12-25T02:56:34.779Z,8.70
2022-12-25T02:59:21.386Z,9.10
2022-12-25T03:02:06.868Z,7.90
2022-12-25T03:04:52.965Z,7.60
2022-12-25T03:07:23.642Z,6.70
2022-12-25T03:10:15.562Z,8.40
2022-12-25T03:12:54.525Z,7.90
2022-12-25T03:15:40.557Z,9.00
2022-12-25T03:18:12.193Z,8.20
2022-12-25T03:20:58.202Z,7.70
2022-12-25T03:23:50.481Z,7.70
2022-12-25T03:26:36.315Z,8.50
2022-12-25T03:29:03.742Z,6.70
2022-12-25T03:31:56.647Z,6.70
2022-12-25T03:34:49.564Z,5.80
2022-12-25T03:37:45.396Z,7.80
2022-12-25T03:40:49.511Z,7.50
2022-12-25T03:44:02.745Z,7.30
2022-12-25T03:46:53.016Z,8.90
2022-12-25T03:49:45.780Z,6.50
2022-12-25T03:52:35.875Z,7.10
2022-12-25T03:55:27.447Z,6.60
2022-12-25T03:58:12.849Z,5.80
2022-12-25T04:00:58.396Z,5.50
2022-12-25T04:03:44.024Z,5.50
2022-12-25T04:06:29.361Z,5.90
2022-12-25T04:09:14.547Z,5.70
2022-12-25T04:12:02.777Z,7.10
2022-12-25T04:14:59.485Z,4.40
2022-12-25T04:17:44.730Z,5.50
2022-12-25T04:20:30.315Z,7.50
2022-12-25T04:23:15.740Z,5.10
2022-12-25T04:26:00.974Z,5.90
2022-12-25T04:28:46.715Z,5.20
2022-12-25T04:31:32.285Z,4.40
2022-12-25T04:34:17.808Z,4.70
2022-12-25T04:36:44.853Z,5.30
2022-12-25T04:39:11.769Z,4.20
2022-12-25T04:41:38.500Z,5.60
2022-12-25T04:44:05.214Z,8.40
2022-12-25T04:46:31.976Z,5.80
2022-12-25T04:48:58.748Z,4.10
2022-12-25T04:51:26.241Z,5.10
2022-12-25T04:53:54.162Z,7.60
2022-12-25T04:56:21.550Z,3.90
2022-12-25T04:58:48.674Z,4.30
2022-12-25T05:01:15.688Z,6.60
2022-12-25T05:03:42.866Z,4.20
2022-12-25T05:06:09.860Z,7.20
2022-12-25T05:08:37.136Z,5.40
2022-12-25T05:11:12.937Z,4.80
2022-12-25T05:13:40.110Z,3.90
2022-12-25T05:16:09.154Z,4.80
2022-12-25T05:18:36.801Z,6.50
2022-12-25T05:21:04.641Z,5.90
2022-12-25T05:23:31.761Z,6.30
2022-12-25T05:25:58.874Z,6.50
2022-12-25T05:28:25.574Z,4.50
2022-12-25T05:30:56.004Z,5.60
2022-12-25T05:33:22.903Z,6.00
2022-12-25T05:35:50.167Z,6.10
2022-12-25T05:38:16.874Z,7.90
2022-12-25T05:40:43.617Z,9.70
2022-12-25T05:43:10.298Z,6.10
2022-12-25T05:45:37.057Z,6.30
2022-12-25T05:48:03.945Z,5.60
2022-12-25T05:50:30.710Z,7.00
2022-12-25T05:53:12.334Z,6.60
2022-12-25T05:55:41.255Z,5.10
2022-12-25T05:58:08.869Z,6.30
2022-12-25T06:00:36.720Z,5.50
2022-12-25T06:03:03.848Z,3.70
2022-12-25T06:05:31.219Z,3.80
2022-12-25T06:07:58.035Z,5.00
2022-12-25T06:10:24.777Z,3.50
2022-12-25T06:12:51.466Z,4.40
2022-12-25T06:15:18.393Z,4.10
2022-12-25T06:17:45.116Z,4.90
2022-12-25T06:20:11.826Z,3.20
2022-12-25T06:22:38.595Z,3.50
2022-12-25T06:25:05.969Z,4.80
2022-12-25T06:27:32.704Z,4.70
2022-12-25T06:29:59.442Z,4.50
2022-12-25T06:32:26.140Z,4.90
2022-12-25T06:34:53.005Z,5.60
2022-12-25T06:37:20.028Z,4.90
2022-12-25T06:39:48.190Z,5.80
2022-12-25T06:42:15.019Z,4.40
2022-12-25T06:44:41.707Z,5.80
2022-12-25T06:47:08.443Z,5.00
2022-12-25T06:49:35.154Z,6.10
2022-12-25T06:52:01.915Z,9.00
2022-12-25T06:54:28.702Z,4.30
2022-12-25T06:56:55.428Z,4.00
2022-12-25T06:59:22.191Z,4.90
2022-12-25T07:01:56.957Z,4.40
2022-12-25T07:04:23.822Z,3.00
2022-12-25T07:06:50.562Z,4.20
2022-12-25T07:09:17.359Z,3.30
2022-12-25T07:11:44.399Z,6.00
2022-12-25T07:14:23.710Z,4.00
2022-12-25T07:16:51.541Z,4.90
2022-12-25T07:19:19.339Z,4.20
2022-12-25T07:21:46.439Z,3.40
2022-12-25T07:24:22.326Z,3.70
2022-12-25T07:26:50.761Z,5.20
2022-12-25T07:29:19.639Z,3.90
2022-12-25T07:31:46.956Z,3.50
2022-12-25T07:34:13.666Z,3.90
2022-12-25T07:36:40.386Z,9.60
2022-12-25T07:39:07.074Z,10.20
2022-12-25T07:41:33.795Z,13.20
2022-12-25T07:44:13.236Z,5.10
2022-12-25T07:46:39.998Z,5.00
2022-12-25T07:49:06.654Z,5.00
2022-12-25T07:51:33.459Z,6.80
2022-12-25T07:54:00.147Z,11.20
2022-12-25T07:56:26.917Z,9.20
2022-12-25T07:58:53.742Z,11.70
2022-12-25T08:01:23.687Z,14.00
2022-12-25T08:03:52.925Z,17.60
2022-12-25T08:06:21.661Z,23.80
2022-12-25T08:08:48.849Z,21.10
2022-12-25T08:11:15.613Z,29.30
2022-12-25T08:13:42.352Z,11.90
2022-12-25T08:16:10.653Z,10.10
2022-12-25T08:18:39.002Z,6.20
2022-12-25T08:21:09.015Z,16.30
2022-12-25T08:23:37.744Z,10.40
2022-12-25T08:26:06.038Z,8.40
2022-12-25T08:28:34.395Z,15.50
2022-12-25T08:31:14.238Z,11.00
2022-12-25T08:33:41.374Z,7.40
2022-12-25T08:36:10.316Z,5.30
2022-12-25T08:38:37.836Z,5.50
2022-12-25T08:48:24.965Z,4.50
2022-12-25T08:50:52.975Z,3.60
2022-12-25T08:53:20.542Z,2.90
2022-12-25T08:58:17.165Z,4.80
2022-12-25T09:00:43.870Z,6.10
2022-12-25T09:03:10.674Z,7.40
2022-12-25T09:05:37.842Z,6.50
2022-12-25T09:08:04.810Z,6.50
2022-12-25T09:10:31.538Z,9.10
2022-12-25T09:12:58.226Z,8.00
2022-12-25T09:15:24.952Z,8.10
2022-12-25T09:17:51.721Z,6.80
2022-12-25T09:20:18.476Z,10.50
2022-12-25T09:22:45.405Z,9.40
2022-12-25T09:25:12.191Z,8.10
2022-12-25T09:27:39.433Z,11.80
2022-12-25T09:30:07.147Z,19.40
2022-12-25T09:32:33.843Z,13.00
2022-12-25T09:35:00.685Z,13.60
2022-12-25T09:37:28.835Z,11.90
2022-12-25T09:39:55.592Z,11.20
2022-12-25T09:42:25.486Z,14.60
2022-12-25T09:45:04.680Z,8.60
2022-12-25T09:47:35.579Z,10.10
2022-12-25T09:50:38.140Z,13.10
2022-12-25T09:53:14.811Z,13.40
2022-12-25T09:55:49.940Z,16.80
2022-12-25T09:58:16.659Z,15.70
2022-12-25T10:00:50.535Z,14.40
2022-12-25T10:06:04.484Z,14.20
2022-12-25T10:08:51.396Z,12.60
2022-12-25T10:11:48.479Z,10.40
2022-12-25T10:14:57.598Z,9.70
2022-12-25T10:17:43.049Z,12.20
2022-12-25T10:20:25.013Z,10.10
2022-12-25T10:22:57.277Z,12.00
2022-12-25T10:25:25.536Z,11.90
2022-12-25T10:27:59.747Z,12.80
2022-12-25T10:30:28.860Z,10.50
2022-12-25T10:32:57.771Z,10.10
2022-12-25T10:35:27.416Z,9.20
2022-12-25T10:38:06.129Z,10.50
2022-12-25T10:40:38.000Z,8.10
2022-12-25T10:43:15.460Z,10.60
2022-12-25T10:45:47.381Z,11.20
2022-12-25T10:48:28.937Z,12.50
2022-12-25T10:50:56.694Z,22.20
2022-12-25T10:53:28.771Z,19.10
2022-12-25T10:55:59.884Z,17.10
2022-12-25T10:58:27.507Z,15.80
2022-12-25T11:01:02.171Z,14.50
2022-12-25T11:03:51.995Z,11.10
2022-12-25T11:06:36.767Z,13.80
2022-12-25T11:09:03.714Z,12.10
2022-12-25T11:11:30.954Z,12.30
2022-12-25T11:14:00.789Z,8.90
2022-12-25T11:16:36.252Z,11.10
2022-12-25T11:19:21.545Z,9.40
2022-12-25T11:21:53.947Z,11.40
2022-12-25T11:24:23.022Z,10.90
2022-12-25T11:26:53.682Z,9.30
2022-12-25T11:29:45.297Z,11.50
2022-12-25T11:32:35.173Z,10.70
2022-12-25T11:35:03.040Z,13.50
2022-12-25T11:37:35.753Z,14.90
2022-12-25T11:40:02.570Z,14.90
2022-12-25T11:42:38.630Z,14.30
2022-12-25T11:45:20.773Z,14.70
2022-12-25T11:48:02.378Z,16.20
2022-12-25T11:50:51.487Z,14.00
2022-12-25T11:53:27.424Z,14.30
2022-12-25T11:56:00.042Z,14.10
2022-12-25T11:58:46.723Z,18.20
2022-12-25T12:01:19.236Z,19.50
2022-12-25T12:03:46.056Z,12.60
2022-12-25T12:06:24.725Z,11.80
2022-12-25T12:08:56.711Z,12.00
2022-12-25T12:11:41.303Z,13.50
2022-12-25T12:14:39.662Z,14.70
2022-12-25T12:17:12.089Z,13.40
2022-12-25T12:19:39.511Z,15.90
2022-12-25T12:24:43.034Z,14.10
2022-12-25T12:27:32.741Z,12.80
2022-12-25T12:30:00.615Z,15.70
2022-12-25T12:32:33.270Z,15.00
2022-12-25T12:35:05.759Z,15.60
2022-12-25T12:37:37.914Z,13.50
2022-12-25T12:40:07.867Z,14.40
2022-12-25T12:42:50.499Z,14.20
2022-12-25T12:45:20.839Z,14.90
2022-12-25T12:47:50.054Z,13.80
2022-12-25T12:50:34.010Z,13.90
2022-12-25T12:53:24.063Z,15.40
2022-12-25T12:55:52.087Z,14.20
2022-12-25T12:58:52.557Z,14.90
2022-12-25T13:01:28.445Z,13.70
2022-12-25T13:04:13.176Z,16.30
2022-12-25T13:06:43.881Z,16.30
2022-12-25T13:09:20.872Z,15.80
2022-12-25T13:11:48.005Z,16.50
2022-12-25T13:14:18.997Z,16.60
2022-12-25T13:16:48.928Z,16.90
2022-12-25T13:19:22.286Z,17.70
2022-12-25T13:21:58.348Z,15.60
2022-12-25T13:24:31.158Z,16.30
2022-12-25T13:26:59.569Z,17.00
2022-12-25T13:29:34.998Z,14.80
2022-12-25T13:32:04.150Z,15.80
2022-12-25T13:34:40.128Z,16.00
2022-12-25T13:37:28.515Z,17.80
2022-12-25T13:40:01.221Z,14.40
2022-12-25T13:42:36.215Z,18.40
2022-12-25T13:45:07.457Z,15.80
2022-12-25T13:47:36.298Z,16.60
2022-12-25T13:50:29.904Z,15.90
2022-12-25T13:52:58.993Z,14.20
2022-12-25T13:55:29.910Z,15.40
2022-12-25T13:58:00.068Z,17.20
2022-12-25T14:00:45.535Z,18.40
2022-12-25T14:03:30.402Z,16.20
2022-12-25T14:05:59.875Z,15.80
2022-12-25T14:08:30.850Z,14.70
2022-12-25T14:11:00.374Z,14.60
2022-12-25T14:13:28.862Z,16.80
2022-12-25T14:15:57.884Z,16.60
2022-12-25T14:18:25.941Z,18.40
2022-12-25T14:21:05.126Z,16.50
2022-12-25T14:23:47.137Z,15.00
2022-12-25T14:26:32.906Z,15.10
2022-12-25T14:29:02.606Z,14.90
2022-12-25T14:31:29.671Z,13.80
2022-12-25T14:33:59.767Z,15.40
2022-12-25T14:36:27.722Z,17.60
2022-12-25T14:38:59.359Z,15.80
2022-12-25T14:41:38.187Z,17.70
2022-12-25T14:44:25.819Z,14.10
2022-12-25T14:47:03.916Z,15.60
2022-12-25T14:49:32.658Z,17.10
2022-12-25T14:51:59.492Z,17.80
2022-12-25T14:54:27.161Z,16.00
2022-12-25T14:56:56.295Z,15.10
2022-12-25T14:59:26.876Z,14.60
2022-12-25T15:01:59.447Z,13.30
2022-12-25T15:04:27.340Z,16.10
2022-12-25T15:07:07.498Z,15.50
2022-12-25T15:09:36.025Z,15.50
2022-12-25T15:12:03.612Z,16.50
2022-12-25T15:17:01.392Z,13.30
2022-12-25T15:19:36.827Z,16.80
2022-12-25T15:22:04.849Z,17.70
2022-12-25T15:24:31.623Z,16.90
2022-12-25T15:27:00.347Z,16.70
2022-12-25T15:30:00.057Z,14.00
2022-12-25T15:32:24.179Z,17.00
2022-12-25T15:34:51.349Z,15.90
2022-12-25T15:37:19.017Z,16.90
2022-12-25T15:39:46.481Z,15.80
2022-12-25T15:44:45.477Z,13.80
2022-12-25T15:47:13.467Z,21.40
2022-12-25T15:49:41.154Z,18.80
2022-12-25T15:52:11.561Z,17.20
2022-12-25T15:54:38.428Z,15.00
2022-12-25T15:57:10.621Z,17.70
2022-12-25T15:59:37.303Z,16.40
2022-12-25T16:02:15.853Z,17.30
2022-12-25T16:04:43.411Z,23.80
2022-12-25T16:07:25.951Z,20.60
2022-12-25T16:09:52.641Z,18.40
2022-12-25T16:12:20.027Z,20.20
2022-12-25T16:14:46.729Z,18.20
2022-12-25T16:17:15.761Z,19.60
2022-12-25T16:19:44.827Z,16.20
2022-12-25T16:22:20.476Z,18.00
2022-12-25T16:24:48.165Z,19.20
2022-12-25T16:27:14.899Z,23.90
2022-12-25T16:29:42.351Z,22.10
2022-12-25T16:34:37.246Z,19.60
2022-12-25T16:37:04.031Z,16.70
2022-12-25T16:39:30.984Z,17.10
2022-12-25T16:41:57.732Z,19.60
2022-12-25T16:44:24.498Z,17.10
2022-12-25T16:46:51.301Z,16.00
2022-12-25T16:49:18.098Z,15.60
2022-12-25T16:51:44.787Z,17.90
2022-12-25T16:54:11.500Z,19.20
2022-12-25T16:56:38.482Z,18.50
2022-12-25T16:59:05.186Z,24.50
2022-12-25T17:01:32.117Z,34.30
2022-12-25T17:04:03.481Z,20.60
2022-12-25T17:06:30.462Z,20.00
2022-12-25T17:08:59.530Z,19.00
2022-12-25T17:11:30.297Z,19.10
2022-12-25T17:14:02.600Z,15.90
2022-12-25T17:16:32.687Z,15.80
2022-12-25T17:19:05.328Z,16.80
2022-12-25T17:21:34.333Z,17.90
2022-12-25T17:24:03.820Z,17.90
2022-12-25T17:26:32.832Z,21.30
2022-12-25T17:29:00.408Z,21.10
2022-12-25T17:31:27.245Z,16.40
2022-12-25T17:33:54.179Z,16.50
2022-12-25T17:36:21.895Z,17.80
2022-12-25T17:38:48.746Z,18.10
2022-12-25T17:41:17.409Z,18.80
2022-12-25T17:43:45.820Z,19.60
2022-12-25T17:46:20.570Z,20.80
2022-12-25T17:48:50.096Z,16.10
2022-12-25T17:51:21.447Z,15.30
2022-12-25T17:53:51.829Z,14.90
2022-12-25T17:56:19.812Z,16.30
2022-12-25T17:58:51.755Z,16.40
2022-12-25T18:01:19.051Z,13.50
2022-12-25T18:03:47.273Z,14.30
2022-12-25T18:06:20.357Z,14.90
2022-12-25T18:08:47.875Z,13.60
2022-12-25T18:13:45.182Z,15.30
2022-12-25T18:16:13.162Z,15.10
2022-12-25T18:18:40.710Z,16.70
2022-12-25T18:21:08.359Z,16.80
2022-12-25T18:23:36.355Z,15.70
2022-12-25T18:26:07.131Z,16.00
2022-12-25T18:28:34.836Z,16.40
2022-12-25T18:31:01.870Z,13.10
2022-12-25T18:33:28.706Z,13.20
2022-12-25T18:36:00.286Z,13.40
2022-12-25T18:38:27.837Z,16.00
2022-12-25T18:43:22.032Z,14.00
2022-12-25T18:46:09.008Z,11.80
2022-12-25T18:48:36.494Z,12.00
2022-12-25T18:51:06.926Z,12.70
2022-12-25T18:53:34.792Z,12.70
2022-12-25T18:56:10.694Z,13.60
2022-12-25T18:58:38.424Z,12.30
2022-12-25T19:01:16.389Z,12.50
2022-12-25T19:03:43.925Z,11.00
2022-12-25T19:06:17.767Z,11.20
2022-12-25T19:11:11.338Z,14.20
2022-12-25T19:13:38.056Z,15.20
2022-12-25T19:16:05.154Z,15.30
2022-12-25T19:18:32.225Z,14.70
2022-12-25T19:21:04.074Z,15.70
2022-12-25T19:23:31.288Z,18.70
2022-12-25T19:25:58.023Z,18.30
2022-12-25T19:28:25.225Z,14.50
2022-12-25T19:30:55.158Z,15.20
2022-12-25T19:33:22.869Z,18.60
2022-12-25T19:38:16.551Z,16.60
2022-12-25T19:41:00.434Z,15.80
2022-12-25T19:43:29.971Z,18.20
2022-12-25T19:46:00.235Z,18.10
2022-12-25T19:48:30.072Z,22.20
2022-12-25T19:50:57.534Z,23.10
2022-12-25T19:55:52.618Z,12.90
2022-12-25T19:58:23.607Z,11.80
2022-12-25T20:01:02.366Z,13.10
2022-12-25T20:03:29.242Z,10.20
2022-12-25T20:05:56.602Z,12.80
2022-12-25T20:08:24.512Z,11.50
2022-12-25T20:10:51.495Z,11.30
2022-12-25T20:13:18.202Z,7.60
2022-12-25T20:15:44.965Z,11.40
2022-12-25T20:18:11.816Z,9.20
2022-12-25T20:20:38.536Z,12.80
2022-12-25T20:23:06.222Z,12.40
2022-12-25T20:25:32.964Z,12.60
2022-12-25T20:27:59.684Z,8.80
2022-12-25T20:30:26.415Z,9.10
2022-12-25T20:32:53.131Z,10.90
2022-12-25T20:35:19.958Z,12.80
2022-12-25T20:37:46.681Z,13.90
2022-12-25T20:40:13.404Z,11.50
2022-12-25T20:42:40.140Z,8.50
2022-12-25T20:45:07.781Z,11.10
2022-12-25T20:47:35.333Z,14.90
2022-12-25T20:52:29.069Z,12.60
2022-12-25T20:54:55.836Z,15.70
2022-12-25T20:57:22.593Z,16.80
2022-12-25T20:59:49.715Z,19.20
2022-12-25T21:02:35.590Z,15.60
2022-12-25T21:07:30.811Z,12.50
2022-12-25T21:09:57.888Z,11.10
2022-12-25T21:12:24.899Z,9.30
2022-12-25T21:14:51.700Z,11.10
2022-12-25T21:17:18.425Z,11.70
2022-12-25T21:19:45.175Z,9.70
2022-12-25T21:22:12.606Z,14.80
2022-12-25T21:24:39.301Z,14.20
2022-12-25T21:27:05.999Z,17.80
2022-12-25T21:29:32.700Z,13.80
2022-12-25T21:32:18.212Z,13.70
2022-12-25T21:34:45.774Z,10.50
2022-12-25T21:37:12.490Z,15.30
2022-12-25T21:39:39.207Z,13.90
2022-12-25T21:42:05.999Z,18.70
2022-12-25T21:44:32.701Z,11.70
2022-12-25T21:46:59.407Z,13.00
2022-12-25T21:49:44.520Z,16.50
2022-12-25T21:52:11.272Z,10.50
2022-12-25T21:54:38.090Z,13.00
2022-12-25T21:57:05.315Z,11.90
2022-12-25T21:59:32.045Z,16.80
2022-12-25T22:01:59.720Z,11.80
2022-12-25T22:04:26.984Z,11.60
2022-12-25T22:07:12.437Z,12.50
2022-12-25T22:09:39.258Z,12.00
2022-12-25T22:12:30.142Z,12.70
2022-12-25T22:15:03.135Z,13.20
2022-12-25T22:17:54.791Z,15.30
2022-12-25T22:20:34.727Z,19.80
2022-12-25T22:25:28.937Z,17.60
2022-12-25T22:27:56.181Z,16.30
2022-12-25T22:30:26.088Z,16.90
2022-12-25T22:32:53.611Z,16.40
2022-12-25T22:35:21.194Z,11.40
2022-12-25T22:37:48.463Z,13.60
2022-12-25T22:40:17.216Z,13.20
2022-12-25T22:42:44.324Z,12.20
2022-12-25T22:45:12.101Z,10.40
2022-12-25T22:47:38.946Z,13.90
2022-12-25T22:50:07.198Z,11.70
2022-12-25T22:52:34.012Z,10.90
2022-12-25T22:55:01.080Z,15.20
2022-12-25T22:57:27.861Z,11.30
2022-12-25T22:59:54.577Z,13.60
2022-12-25T23:02:22.161Z,9.70
2022-12-25T23:04:49.142Z,11.70
2022-12-25T23:07:16.600Z,12.70
2022-12-25T23:12:30.117Z,9.90
2022-12-25T23:14:57.069Z,9.50
2022-12-25T23:17:56.491Z,9.00
2022-12-25T23:23:34.342Z,9.10
2022-12-25T23:26:10.384Z,12.20
2022-12-25T23:28:58.245Z,10.50
2022-12-25T23:31:29.752Z,9.10
2022-12-25T23:33:57.398Z,11.10
2022-12-25T23:41:17.645Z,11.00
2022-12-25T23:43:44.491Z,13.70
2022-12-25T23:46:11.259Z,13.20
2022-12-25T23:48:38.058Z,16.10
2022-12-25T23:51:06.152Z,12.70
2022-12-25T23:53:33.992Z,11.20
2022-12-25T23:56:01.271Z,11.00
2022-12-25T23:58:28.614Z,11.00
